createdAt,value
2023-02-20T08:58:47.132Z,28.10
2023-02-20T09:05:55.438Z,38.80
2023-02-20T09:06:56.169Z,37.70
2023-02-20T09:07:56.149Z,33.70
2023-02-20T09:10:08.076Z,33.00
2023-02-20T09:11:10.462Z,28.40
2023-02-20T09:12:09.015Z,31.70
2023-02-20T09:13:09.005Z,31.70
2023-02-20T09:14:08.990Z,32.80
2023-02-20T09:15:09.000Z,33.60
2023-02-20T09:16:09.040Z,30.40
2023-02-20T09:17:08.973Z,27.70
2023-02-20T09:18:08.940Z,32.90
2023-02-20T09:19:08.943Z,29.60
2023-02-20T09:20:08.985Z,29.90
2023-02-20T09:21:08.984Z,26.10
2023-02-20T09:22:08.957Z,26.90
2023-02-20T09:23:09.107Z,26.00
2023-02-20T09:24:08.851Z,32.40
2023-02-20T09:25:08.893Z,30.60
2023-02-20T09:26:08.850Z,30.40
2023-02-20T09:27:08.866Z,32.00
2023-02-20T09:28:08.823Z,27.60
2023-02-20T09:29:08.800Z,24.80
2023-02-20T09:30:08.817Z,26.50
2023-02-20T09:31:08.772Z,29.40
2023-02-20T09:32:08.891Z,31.20
2023-02-20T09:33:08.749Z,31.20
2023-02-20T09:34:08.730Z,25.60
2023-02-20T09:35:08.718Z,31.40
2023-02-20T09:36:07.736Z,28.50
2023-02-20T09:37:08.763Z,27.00
2023-02-20T09:38:08.693Z,27.30
2023-02-20T09:39:08.664Z,25.70
2023-02-20T09:40:08.683Z,29.40
2023-02-20T09:41:08.642Z,25.00
2023-02-20T09:42:08.619Z,31.20
2023-02-20T09:43:08.624Z,26.50
2023-02-20T09:44:08.596Z,29.40
2023-02-20T09:45:08.580Z,33.50
2023-02-20T09:46:08.630Z,23.70
2023-02-20T09:47:08.617Z,27.80
2023-02-20T09:48:08.536Z,26.50
2023-02-20T09:49:08.563Z,24.60
2023-02-20T09:50:08.514Z,25.10
2023-02-20T09:51:08.594Z,29.20
2023-02-20T09:52:08.492Z,25.70
2023-02-20T09:53:08.466Z,22.80
2023-02-20T09:54:08.459Z,29.40
2023-02-20T09:55:08.474Z,26.40
2023-02-20T09:56:08.486Z,27.90
2023-02-20T09:57:08.463Z,25.60
2023-02-20T09:58:08.444Z,26.80
2023-02-20T09:59:08.391Z,23.80
2023-02-20T10:00:08.375Z,26.90
2023-02-20T10:01:08.371Z,25.40
2023-02-20T10:02:08.436Z,26.00
2023-02-20T10:03:08.481Z,29.40
2023-02-20T10:04:08.317Z,24.60
2023-02-20T10:05:08.311Z,28.30
2023-02-20T10:06:08.317Z,26.60
2023-02-20T10:07:08.303Z,27.40
2023-02-20T10:08:08.280Z,30.60
2023-02-20T10:09:08.251Z,26.60
2023-02-20T10:10:08.296Z,30.70
2023-02-20T10:11:10.075Z,24.20
2023-02-20T10:12:08.205Z,27.90
2023-02-20T10:13:08.189Z,25.60
2023-02-20T10:14:08.207Z,27.60
2023-02-20T10:15:08.184Z,25.30
2023-02-20T10:16:08.209Z,27.60
2023-02-20T10:17:10.085Z,25.60
2023-02-20T10:18:08.150Z,22.40
2023-02-20T10:19:08.169Z,26.90
2023-02-20T10:20:08.167Z,20.60
2023-02-20T10:21:08.138Z,22.40
2023-02-20T10:22:08.103Z,24.60
2023-02-20T10:23:08.089Z,22.70
2023-02-20T10:24:08.207Z,27.30
2023-02-20T10:25:08.058Z,24.80
2023-02-20T10:26:08.032Z,22.30
2023-02-20T10:27:08.055Z,20.30
2023-02-20T10:28:08.001Z,28.50
2023-02-20T10:29:08.040Z,25.10
2023-02-20T10:30:08.031Z,26.30
2023-02-20T10:31:08.037Z,25.60
2023-02-20T10:32:07.978Z,21.40
2023-02-20T10:33:07.981Z,21.20
2023-02-20T10:34:07.929Z,24.60
2023-02-20T10:35:07.908Z,23.70
2023-02-20T10:36:07.933Z,18.70
2023-02-20T10:37:07.925Z,21.30
2023-02-20T10:38:07.966Z,20.70
2023-02-20T10:39:07.885Z,23.90
2023-02-20T10:40:07.851Z,23.00
2023-02-20T10:41:07.902Z,20.60
2023-02-20T10:42:07.889Z,22.10
2023-02-20T10:43:07.856Z,27.50
2023-02-20T10:44:07.890Z,21.30
2023-02-20T10:45:07.875Z,22.50
2023-02-20T10:46:07.852Z,25.20
2023-02-20T10:47:07.828Z,26.40
2023-02-20T10:48:07.814Z,21.60
2023-02-20T10:49:07.779Z,21.20
2023-02-20T10:50:07.758Z,21.00
2023-02-20T10:51:07.725Z,20.60
2023-02-20T10:52:07.768Z,22.40
2023-02-20T10:53:07.782Z,22.60
2023-02-20T10:54:07.646Z,22.90
2023-02-20T10:55:07.719Z,22.10
2023-02-20T10:56:07.617Z,20.00
2023-02-20T10:57:07.619Z,18.10
2023-02-20T10:58:07.592Z,21.30
2023-02-20T10:59:07.581Z,21.20
2023-02-20T11:00:07.602Z,25.90
2023-02-20T11:01:07.617Z,18.70
2023-02-20T11:02:07.671Z,23.90
2023-02-20T11:03:07.541Z,27.90
2023-02-20T11:04:07.603Z,25.30
2023-02-20T11:05:07.587Z,21.50
2023-02-20T11:06:07.534Z,23.40
2023-02-20T11:07:07.524Z,24.80
2023-02-20T11:08:07.477Z,19.70
2023-02-20T11:09:07.466Z,25.50
2023-02-20T11:10:07.440Z,21.40
2023-02-20T11:11:07.404Z,20.90
2023-02-20T11:12:07.405Z,22.30
2023-02-20T11:13:07.375Z,19.20
2023-02-20T11:14:07.431Z,20.70
2023-02-20T11:15:07.358Z,20.50
2023-02-20T11:16:07.363Z,20.40
2023-02-20T11:17:07.383Z,23.70
2023-02-20T11:18:07.312Z,19.20
2023-02-20T11:19:07.297Z,24.90
2023-02-20T11:20:07.289Z,20.50
2023-02-20T11:21:07.274Z,22.60
2023-02-20T11:22:07.284Z,20.90
2023-02-20T11:23:07.240Z,18.20
2023-02-20T11:24:07.293Z,23.00
2023-02-20T11:25:07.230Z,21.20
2023-02-20T11:26:07.231Z,23.20
2023-02-20T11:27:07.240Z,21.10
2023-02-20T11:28:07.207Z,22.00
2023-02-20T11:29:07.172Z,20.30
2023-02-20T11:30:07.238Z,23.20
2023-02-20T11:31:07.219Z,22.00
2023-02-20T11:32:07.174Z,17.50
2023-02-20T11:33:07.113Z,24.20
2023-02-20T11:34:07.096Z,23.40
2023-02-20T11:35:07.079Z,20.60
2023-02-20T11:36:07.076Z,20.20
2023-02-20T11:37:07.066Z,19.40
2023-02-20T11:38:07.042Z,22.00
2023-02-20T11:39:07.032Z,18.40
2023-02-20T11:40:07.035Z,19.10
2023-02-20T14:13:48.564Z,22.50
2023-02-20T14:14:49.297Z,24.20
2023-02-20T14:15:49.292Z,26.60
2023-02-20T14:16:49.309Z,24.60
2023-02-20T14:17:49.335Z,30.70
2023-02-20T14:18:49.261Z,31.50
2023-02-20T14:19:49.364Z,30.40
2023-02-20T14:20:49.287Z,24.80
2023-02-20T14:21:49.260Z,24.10
2023-02-20T14:22:49.178Z,31.30
2023-02-20T14:23:49.233Z,27.70
2023-02-20T14:24:49.284Z,29.50
2023-02-20T14:25:59.881Z,26.20
2023-02-20T14:26:49.144Z,26.80
2023-02-20T14:27:50.422Z,29.80
2023-02-20T14:28:49.136Z,28.80
2023-02-20T14:29:49.147Z,29.80
2023-02-20T14:30:49.086Z,27.80
2023-02-20T14:31:49.214Z,29.60
2023-02-20T14:32:49.058Z,27.50
2023-02-20T14:33:49.035Z,28.20
2023-02-20T14:34:49.040Z,25.60
2023-02-20T14:35:49.020Z,26.10
2023-02-20T14:36:49.041Z,32.20
2023-02-20T14:37:49.035Z,28.20
2023-02-20T14:38:48.969Z,30.40
2023-02-20T14:39:48.973Z,25.60
2023-02-20T14:40:48.935Z,30.00
2023-02-20T14:41:48.919Z,31.20
2023-02-20T14:42:48.957Z,29.40
2023-02-20T14:43:48.983Z,27.60
2023-02-20T14:44:48.905Z,29.50
2023-02-20T14:45:48.958Z,27.50
2023-02-20T14:46:48.885Z,30.60
2023-02-20T14:47:48.864Z,35.10
2023-02-20T14:48:48.826Z,29.50
2023-02-20T14:49:48.901Z,31.20
2023-02-20T14:50:48.843Z,25.30
2023-02-20T14:51:48.806Z,30.90
2023-02-20T14:52:48.774Z,30.30
2023-02-20T14:53:48.761Z,29.50
2023-02-20T14:54:48.900Z,30.80
2023-02-20T14:55:48.814Z,31.40
2023-02-20T14:56:48.838Z,30.60
2023-02-20T14:57:48.719Z,31.10
2023-02-20T14:58:48.694Z,30.70
2023-02-20T14:59:48.694Z,32.20
2023-02-20T15:00:48.682Z,29.60
2023-02-20T15:01:48.701Z,32.50
2023-02-20T15:02:48.711Z,36.10
2023-02-20T15:03:48.725Z,28.70
2023-02-20T15:04:48.624Z,32.80
2023-02-20T15:05:48.696Z,30.60
2023-02-20T15:06:48.599Z,34.80
2023-02-20T15:07:48.605Z,31.00
2023-02-20T15:08:48.584Z,32.40
2023-02-20T15:09:48.600Z,37.30
2023-02-20T15:10:48.569Z,35.60
2023-02-20T15:11:48.560Z,35.40
2023-02-20T15:12:48.580Z,38.80
2023-02-20T15:13:48.517Z,32.20
2023-02-20T15:14:48.534Z,35.50
2023-02-20T15:15:48.471Z,34.10
2023-02-20T15:16:48.486Z,32.80
2023-02-20T15:17:48.474Z,29.60
2023-02-20T15:18:50.238Z,39.20
2023-02-20T15:19:48.582Z,34.70
2023-02-20T15:20:48.461Z,32.50
2023-02-20T15:21:48.401Z,39.10
2023-02-20T15:22:48.422Z,36.60
2023-02-20T15:23:48.445Z,39.30
2023-02-20T15:24:48.572Z,35.10
2023-02-20T15:25:48.404Z,38.60
2023-02-20T15:26:48.382Z,36.70
2023-02-20T15:27:48.375Z,37.80
2023-02-20T15:28:48.294Z,33.90
2023-02-20T15:29:48.314Z,39.00
2023-02-20T15:30:48.356Z,37.40
2023-02-20T15:31:48.530Z,37.50
2023-02-20T15:32:48.374Z,37.20
2023-02-20T15:33:48.309Z,35.20
2023-02-20T15:34:48.227Z,36.00
2023-02-20T15:35:48.217Z,36.60
2023-02-20T15:36:48.192Z,38.80
2023-02-20T15:37:49.947Z,37.70
2023-02-20T15:38:48.267Z,39.30
2023-02-20T15:39:48.148Z,37.30
2023-02-20T15:40:48.167Z,36.10
2023-02-20T15:41:48.133Z,41.50
2023-02-20T15:42:48.184Z,36.40
2023-02-20T15:43:50.843Z,42.90
2023-02-20T15:44:48.121Z,40.20
2023-02-20T15:45:48.138Z,38.30
2023-02-20T15:46:48.072Z,41.60
2023-02-20T15:47:48.041Z,44.20
2023-02-20T15:48:48.040Z,41.40
2023-02-20T15:49:48.031Z,40.80
2023-02-20T15:50:48.024Z,42.80
2023-02-20T15:51:48.587Z,40.60
2023-02-20T15:52:48.011Z,49.20
2023-02-20T15:53:48.066Z,40.30
2023-02-20T15:54:48.012Z,44.20
2023-02-20T15:55:47.954Z,44.20
2023-02-20T15:56:47.913Z,44.30
2023-02-20T15:57:47.981Z,45.00
2023-02-20T15:58:47.905Z,45.80
2023-02-20T15:59:47.920Z,44.80
2023-02-20T16:00:47.921Z,44.20
2023-02-20T16:01:47.953Z,46.70
2023-02-20T16:02:48.057Z,44.30
2023-02-20T16:03:53.276Z,48.80
2023-02-20T16:04:47.881Z,48.70
2023-02-20T16:05:47.915Z,43.20
2023-02-20T16:06:47.833Z,43.70
2023-02-20T16:07:47.869Z,44.70
2023-02-20T16:08:47.785Z,44.00
2023-02-20T16:09:47.790Z,43.90
2023-02-20T16:10:47.797Z,46.20
2023-02-20T16:11:47.764Z,45.90
2023-02-20T16:12:47.716Z,51.40
2023-02-20T16:13:47.864Z,45.90
2023-02-20T16:14:47.699Z,48.10
2023-02-20T16:15:47.767Z,50.50
2023-02-20T16:16:47.811Z,48.90
2023-02-20T16:17:47.678Z,46.20
2023-02-20T16:18:47.648Z,45.10
2023-02-20T16:19:47.728Z,47.30
2023-02-20T16:20:47.765Z,44.70
2023-02-20T16:21:58.613Z,44.50
2023-02-20T16:22:47.588Z,44.60
2023-02-20T16:23:47.576Z,49.20
2023-02-20T16:24:47.552Z,50.00
2023-02-20T16:25:47.620Z,45.10
2023-02-20T16:26:47.593Z,42.30
2023-02-20T16:27:47.680Z,47.80
2023-02-20T16:28:47.601Z,50.10
2023-02-20T16:29:47.524Z,42.20
2023-02-20T16:30:47.655Z,48.40
2023-02-20T16:31:47.606Z,54.40
2023-02-20T16:32:47.469Z,45.10
2023-02-20T16:33:47.463Z,42.60
2023-02-20T16:34:47.419Z,49.40
2023-02-20T16:35:47.432Z,47.50
2023-02-20T16:36:47.403Z,49.30
2023-02-20T16:37:47.400Z,47.60
2023-02-20T16:38:47.376Z,50.70
2023-02-20T16:39:47.383Z,49.80
2023-02-20T16:40:47.343Z,48.90
2023-02-20T16:41:47.392Z,47.50
2023-02-20T16:42:47.438Z,53.10
2023-02-20T16:43:47.339Z,45.80
2023-02-20T16:44:47.293Z,52.00
2023-02-20T16:45:47.277Z,60.00
2023-02-20T16:46:47.305Z,51.00
2023-02-20T16:47:47.248Z,56.90
2023-02-20T16:48:47.227Z,46.60
2023-02-20T16:49:47.227Z,63.80
2023-02-20T16:50:47.385Z,70.20
2023-02-20T16:51:47.225Z,58.10
2023-02-20T16:52:47.823Z,52.40
2023-02-20T16:53:47.223Z,60.40
2023-02-20T16:54:47.176Z,53.20
2023-02-20T16:55:47.180Z,53.20
2023-02-20T16:56:47.155Z,59.50
2023-02-20T16:57:47.114Z,52.90
2023-02-20T16:58:47.161Z,57.50
2023-02-20T16:59:47.101Z,55.10
2023-02-20T17:00:57.174Z,47.00
2023-02-20T17:01:47.148Z,57.50
2023-02-20T17:02:47.100Z,56.80
2023-02-20T17:03:47.068Z,57.50
2023-02-20T17:04:47.199Z,58.20
2023-02-20T17:05:47.013Z,58.00
2023-02-20T17:06:47.057Z,54.20
2023-02-20T17:07:47.012Z,62.50
2023-02-20T17:08:46.991Z,57.30
2023-02-20T17:09:46.998Z,64.50
2023-02-20T17:10:46.957Z,55.30
2023-02-20T17:11:46.951Z,60.20
2023-02-20T17:12:46.955Z,59.90
2023-02-20T17:13:46.901Z,59.90
2023-02-20T17:14:46.890Z,59.00
2023-02-20T17:15:46.957Z,64.50
2023-02-20T17:16:46.927Z,66.40
2023-02-20T17:17:46.853Z,66.80
2023-02-20T17:18:46.841Z,63.10
2023-02-20T17:19:46.838Z,55.20
2023-02-20T17:20:46.820Z,63.50
2023-02-20T17:21:46.828Z,61.90
2023-02-20T17:22:50.417Z,67.10
2023-02-20T17:23:46.816Z,64.30
2023-02-20T17:24:46.791Z,65.40
2023-02-20T17:25:46.752Z,62.50
2023-02-20T17:26:46.767Z,63.50
2023-02-20T17:27:46.728Z,67.40
2023-02-20T17:28:46.703Z,71.60
2023-02-20T17:29:46.696Z,75.30
2023-02-20T17:30:46.713Z,65.30
2023-02-20T17:31:46.827Z,68.20
2023-02-20T17:32:46.686Z,62.60
2023-02-20T17:33:46.651Z,67.20
2023-02-20T19:55:48.343Z,49.90
2023-02-20T19:56:43.848Z,51.40
2023-02-20T19:57:43.816Z,48.30
2023-02-20T19:58:43.843Z,55.60
2023-02-20T19:59:43.763Z,49.40
2023-02-20T20:00:43.741Z,53.80
2023-02-20T20:01:43.788Z,55.40
2023-02-20T20:02:43.775Z,51.70
2023-02-20T20:03:43.735Z,54.00
2023-02-20T20:04:43.695Z,50.10
2023-02-20T20:05:43.676Z,49.90
2023-02-20T20:06:43.679Z,52.60
2023-02-20T20:07:43.649Z,53.20
2023-02-20T20:09:09.342Z,51.00
2023-02-20T20:09:43.615Z,59.10
2023-02-20T20:10:43.612Z,55.60
2023-02-20T20:11:43.579Z,56.90
2023-02-20T20:12:43.570Z,58.10
2023-02-20T20:13:43.571Z,57.60
2023-02-20T20:14:43.549Z,50.60
2023-02-20T20:15:43.537Z,51.40
2023-02-20T20:16:43.563Z,56.70
2023-02-20T20:17:43.510Z,53.10
2023-02-20T20:18:43.507Z,55.10
2023-02-20T20:19:53.208Z,58.30
2023-02-20T20:20:43.484Z,48.50
2023-02-20T20:21:43.462Z,49.40
2023-02-20T20:22:43.439Z,54.30
2023-02-20T20:23:43.481Z,55.10
2023-02-20T20:24:43.422Z,48.90
2023-02-20T20:25:43.477Z,52.00
2023-02-20T20:26:43.418Z,48.00
2023-02-20T20:27:43.371Z,56.90
2023-02-20T20:28:43.637Z,53.20
2023-02-20T20:29:43.345Z,49.80
2023-02-20T20:30:43.459Z,57.00
2023-02-20T20:31:43.427Z,53.80
2023-02-20T20:32:43.310Z,50.80
2023-02-20T20:33:43.295Z,50.60
2023-02-20T20:34:43.348Z,49.70
2023-02-20T20:35:43.268Z,49.50
2023-02-20T20:36:43.302Z,51.40
2023-02-20T20:37:43.267Z,52.90
2023-02-20T20:38:43.256Z,47.70
2023-02-20T20:39:43.210Z,53.30
2023-02-20T20:40:43.217Z,54.30
2023-02-20T20:41:45.357Z,52.20
2023-02-20T20:42:43.232Z,54.40
2023-02-20T20:43:43.170Z,49.10
2023-02-20T20:44:43.192Z,48.30
2023-02-20T20:45:43.146Z,50.70
2023-02-20T20:46:43.180Z,52.90
2023-02-20T20:47:43.108Z,49.20
2023-02-20T20:48:43.093Z,50.40
2023-02-20T20:49:43.094Z,49.40
2023-02-20T20:50:43.099Z,49.00
2023-02-20T20:51:43.095Z,48.50
2023-02-20T20:53:04.210Z,49.60
2023-02-20T20:53:43.029Z,49.80
2023-02-20T20:54:43.029Z,52.10
2023-02-20T20:55:42.987Z,50.20
2023-02-20T20:56:42.998Z,46.10
2023-02-20T20:57:43.029Z,47.10
2023-02-20T20:58:42.962Z,49.50
2023-02-20T20:59:42.951Z,47.20
2023-02-20T21:00:42.981Z,44.80
2023-02-20T21:01:43.023Z,43.30
2023-02-20T21:02:42.974Z,50.60
2023-02-20T21:04:04.115Z,50.80
2023-02-20T21:04:42.885Z,49.00
2023-02-20T21:05:42.871Z,47.30
2023-02-20T21:07:03.939Z,50.60
2023-02-20T21:07:42.871Z,46.30
2023-02-20T21:08:42.828Z,47.70
2023-02-20T21:09:42.827Z,50.80
2023-02-20T21:10:42.797Z,48.20
2023-02-20T21:11:42.906Z,48.30
2023-02-20T21:12:42.791Z,51.10
2023-02-20T21:13:42.761Z,51.30
2023-02-20T21:14:42.755Z,46.60
2023-02-20T21:15:42.793Z,48.40
2023-02-20T21:16:42.746Z,49.10
2023-02-20T21:17:42.713Z,46.20
2023-02-20T21:18:42.788Z,47.50
2023-02-20T21:19:42.726Z,50.50
2023-02-20T21:20:43.966Z,51.40
2023-02-20T21:21:42.729Z,50.40
2023-02-20T21:22:42.654Z,47.90
2023-02-20T21:23:43.740Z,47.80
2023-02-20T21:24:42.619Z,52.20
2023-02-20T21:25:42.727Z,50.30
2023-02-20T21:26:42.595Z,48.30
2023-02-20T21:28:03.681Z,47.40
2023-02-20T21:28:42.595Z,48.60
2023-02-20T21:29:42.597Z,48.90
2023-02-20T21:30:42.616Z,49.40
2023-02-20T21:31:42.693Z,48.30
2023-02-20T21:32:42.513Z,52.70
2023-02-20T21:33:42.514Z,47.60
2023-02-20T21:34:42.487Z,46.60
2023-02-20T21:35:42.478Z,45.50
2023-02-20T21:36:42.457Z,47.00
2023-02-20T21:37:42.492Z,51.00
2023-02-20T21:38:42.434Z,48.50
2023-02-20T21:39:42.446Z,49.80
2023-02-20T21:40:42.408Z,49.30
2023-02-20T21:41:42.402Z,44.10
2023-02-20T21:42:42.381Z,45.60
2023-02-20T21:43:42.390Z,48.40
2023-02-20T21:44:42.367Z,51.20
2023-02-20T21:45:42.385Z,46.30
2023-02-20T21:46:42.389Z,50.70
2023-02-20T21:47:42.348Z,47.40
2023-02-20T21:48:42.298Z,49.00
2023-02-20T21:49:42.302Z,47.90
2023-02-20T21:50:42.291Z,48.70
2023-02-20T21:51:42.257Z,43.00
2023-02-20T21:52:42.260Z,41.10
2023-02-20T21:53:42.267Z,42.20
2023-02-20T21:54:42.240Z,47.60
2023-02-20T21:55:42.245Z,47.90
2023-02-20T21:56:42.191Z,47.10
2023-02-20T21:57:42.202Z,42.90
2023-02-20T21:58:42.332Z,44.20
2023-02-20T21:59:41.248Z,48.40
2023-02-20T22:00:42.134Z,48.30
2023-02-20T22:07:24.118Z,45.40
2023-02-20T22:08:22.180Z,47.40
2023-02-20T22:09:22.168Z,48.20
2023-02-20T22:10:22.171Z,44.80
2023-02-20T22:11:22.150Z,45.20
2023-02-20T22:12:22.133Z,52.70
2023-02-20T22:13:22.143Z,44.60
2023-02-20T22:14:22.101Z,55.50
2023-02-20T22:15:22.190Z,51.20
2023-02-20T22:16:22.157Z,48.10
2023-02-20T22:17:22.068Z,43.20
2023-02-20T22:18:22.051Z,47.00
2023-02-20T22:19:22.030Z,46.80
2023-02-20T22:20:22.026Z,50.20
2023-02-20T22:21:22.054Z,45.50
2023-02-20T22:22:22.008Z,47.00
2023-02-20T22:23:22.062Z,45.60
2023-02-20T22:24:27.745Z,48.60
2023-02-20T22:25:22.008Z,51.00
2023-02-20T22:26:21.948Z,54.70
2023-02-20T22:27:21.940Z,45.70
2023-02-20T22:28:21.932Z,45.30
2023-02-20T22:29:21.938Z,46.70
2023-02-20T22:30:21.949Z,45.00
2023-02-20T22:31:22.020Z,52.90
2023-02-20T22:32:22.143Z,45.90
2023-02-20T22:33:21.892Z,49.30
2023-02-20T22:34:21.834Z,45.50
2023-02-20T22:35:21.885Z,47.70
2023-02-20T22:36:21.806Z,53.40
2023-02-20T22:37:21.812Z,42.20
2023-02-20T22:38:21.786Z,48.90
2023-02-20T22:39:21.796Z,46.60
2023-02-20T22:40:21.771Z,42.70
2023-02-20T22:41:21.750Z,51.70
2023-02-20T22:42:29.602Z,44.80
2023-02-20T22:43:21.730Z,47.20
2023-02-20T22:44:21.702Z,46.40
2023-02-20T22:45:21.712Z,49.90
2023-02-20T22:46:21.687Z,44.40
2023-02-20T22:47:21.673Z,49.20
2023-02-20T22:48:21.711Z,47.30
2023-02-20T22:49:21.641Z,45.90
2023-02-20T22:50:21.648Z,44.90
2023-02-20T22:51:21.607Z,45.00
2023-02-20T22:52:21.593Z,44.80
2023-02-20T22:53:21.594Z,48.80
2023-02-20T22:54:21.636Z,46.50
2023-02-20T22:55:21.562Z,47.60
2023-02-20T22:56:21.579Z,44.70
2023-02-20T22:57:21.557Z,47.40
2023-02-20T22:58:21.621Z,48.30
2023-02-20T22:59:21.522Z,46.00
2023-02-20T23:00:21.508Z,49.50
2023-02-20T23:01:21.505Z,49.40
2023-02-20T23:02:21.458Z,52.80
2023-02-20T23:03:21.469Z,51.60
2023-02-20T23:04:21.432Z,46.60
2023-02-20T23:05:21.429Z,45.90
2023-02-20T23:06:21.535Z,47.80
2023-02-20T23:07:21.418Z,46.80
2023-02-20T23:08:21.393Z,46.10
2023-02-20T23:09:21.402Z,41.70
2023-02-20T23:10:21.368Z,44.90
2023-02-20T23:11:21.335Z,48.10
2023-02-20T23:12:21.357Z,44.90
2023-02-20T23:13:21.324Z,50.80
2023-02-20T23:14:21.293Z,45.60
2023-02-20T23:15:21.323Z,48.00
2023-02-20T23:16:21.330Z,47.70
2023-02-20T23:17:34.354Z,44.40
2023-02-20T23:18:21.262Z,42.70
2023-02-20T23:19:21.227Z,45.20
2023-02-20T23:20:21.232Z,45.40
2023-02-20T23:21:21.213Z,46.70
2023-02-20T23:22:21.187Z,48.10
2023-02-20T23:23:21.215Z,48.40
2023-02-20T23:24:21.178Z,48.20
2023-02-20T23:25:21.186Z,46.30
2023-02-20T23:26:21.180Z,45.70
2023-02-20T23:27:21.142Z,46.20
2023-02-20T23:28:29.012Z,49.90
2023-02-20T23:29:21.128Z,54.10
2023-02-20T23:30:21.165Z,45.90
2023-02-20T23:31:21.105Z,45.90
2023-02-20T23:32:21.070Z,45.00
2023-02-20T23:33:21.057Z,48.60
2023-02-20T23:34:21.026Z,48.50
2023-02-20T23:35:21.015Z,52.80
2023-02-20T23:36:21.002Z,51.30
2023-02-20T23:37:20.981Z,46.90
2023-02-20T23:38:20.973Z,51.50
2023-02-20T23:39:20.960Z,47.30
2023-02-20T23:40:27.301Z,51.10
2023-02-20T23:41:21.014Z,46.80
2023-02-20T23:42:20.945Z,48.40
2023-02-20T23:43:20.936Z,43.20
2023-02-20T23:44:20.908Z,48.40
2023-02-20T23:45:20.868Z,53.10
2023-02-20T23:46:20.878Z,50.20
2023-02-20T23:47:20.868Z,53.80
2023-02-20T23:48:20.836Z,45.70
2023-02-20T23:49:21.575Z,46.60
2023-02-20T23:50:20.795Z,45.70
2023-02-20T23:51:20.800Z,47.00
2023-02-20T23:52:20.760Z,51.60
2023-02-20T23:53:20.835Z,48.20
2023-02-20T23:54:20.767Z,48.40
2023-02-20T23:55:20.740Z,51.10
2023-02-20T23:56:20.744Z,51.20
2023-02-20T23:57:20.713Z,48.90
2023-02-20T23:58:20.693Z,46.50
2023-02-20T23:59:20.692Z,47.90
